Forside
METAR-TAF:

METAR-TAF

Lufthavne :

Tokushima, Japan

Breddekreds: 34-08N, længdekreds: 134-37E, højde: 8 m

Aktuelle vejr

Denne rapport blev lavet for 55 minutter siden, kl. 22:15 UTC
Vind 15 kt fra sydsydøst
Temperatur 25°C
Fugtighed 94%
Tryk 1013 hPa
Sigt 10 km eller mere
Nogle få skyer i en højde af 300 ft
Spredte skyer i en højde af 800 ft
Brudte skyer i en højde af 10000 ft

METAR: RJOS 192215Z 16015KT 9999 FEW003 SCT008 BKN100 25/24 Q1013 RMK 1ST003 3ST008 6AC100 A2994

Tid: 08:10 (23:10 UTC)


TAF: fraværende

Vejrobservationer og prognoser fra mere end 4000 lufthavne (METAR og TAF).

De gule og røde prikker repræsenterer de meteorologiske stationer.

Flyt musen over at se navnet på stationen.

Så klik over at se vejr observationer og prognoser.

At skifte det kort: Klik på de grønne knapper med et sort kors for at zoome ind; på den grønne knap med en bindestreg for at zoome ud; eller på de grønne pile for tilstødende kort.


METAR-TAF: